QFA362 YSSY-YMML
Flight info
| Callsign | QFA362 |
|---|---|
| Flight time | 1h 12m |
| Altitude | 36000 |
| Route | MARUB7/34R WOL H65 LEECE Q29 ML |
| Aircraft | A320/M-SDE3FGHIRWY/LB1 |
Departure
| Time | 2026-05-04 11:33 |
|---|---|
| Airport | Sydney Kingsford Smith International Airport (YSSY) |
Arrival
| Time | 2026-05-04 12:45 |
|---|---|
| Airport | Melbourne Airport (YMML) |
| Time | Latitude | Longitude | Altitude | Speed | Heading |
|---|---|---|---|---|---|
| 2026-05-04 10:44 | -33.93556 | 151.17993 | 30 ft | 0 kts | 280° |
| 2026-05-04 11:12 | -33.93547 | 151.18064 | 30 ft | 0 kts | 189° |
| 2026-05-04 11:16 | -33.93548 | 151.18063 | 30 ft | 1 kts | 189° |
| 2026-05-04 11:16 | -33.93566 | 151.18060 | 30 ft | 5 kts | 189° |
| 2026-05-04 11:16 | -33.93620 | 151.18053 | 30 ft | 11 kts | 184° |
| 2026-05-04 11:17 | -33.93701 | 151.18057 | 30 ft | 11 kts | 169° |
| 2026-05-04 11:17 | -33.93775 | 151.18038 | 30 ft | 12 kts | 238° |
| 2026-05-04 11:19 | -33.93824 | 151.17841 | 30 ft | 0 kts | 254° |
| 2026-05-04 11:20 | -33.93827 | 151.17828 | 29 ft | 3 kts | 254° |
| 2026-05-04 11:20 | -33.93846 | 151.17787 | 30 ft | 8 kts | 225° |
| 2026-05-04 11:20 | -33.93909 | 151.17781 | 29 ft | 11 kts | 167° |
| 2026-05-04 11:20 | -33.93994 | 151.17804 | 29 ft | 15 kts | 167° |
| 2026-05-04 11:22 | -33.94971 | 151.17998 | 30 ft | 18 kts | 167° |
| 2026-05-04 11:22 | -33.95068 | 151.18027 | 30 ft | 14 kts | 155° |
| 2026-05-04 11:23 | -33.95095 | 151.18138 | 30 ft | 16 kts | 77° |
| 2026-05-04 11:23 | -33.95068 | 151.18277 | 30 ft | 18 kts | 78° |
| 2026-05-04 11:24 | -33.95107 | 151.18535 | 30 ft | 19 kts | 142° |
| 2026-05-04 11:25 | -33.95211 | 151.18649 | 30 ft | 21 kts | 139° |
| 2026-05-04 11:25 | -33.95353 | 151.18728 | 30 ft | 25 kts | 166° |
| 2026-05-04 11:25 | -33.95549 | 151.18779 | 30 ft | 32 kts | 168° |
| 2026-05-04 11:26 | -33.96007 | 151.18898 | 30 ft | 30 kts | 168° |
| 2026-05-04 11:27 | -33.97112 | 151.19275 | 28 ft | 0 kts | 77° |
| 2026-05-04 11:31 | -33.96089 | 151.19122 | 28 ft | 118 kts | 348° |
| 2026-05-04 11:33 | -33.93764 | 151.25141 | 4549 ft | 203 kts | 89° |
| 2026-05-04 11:33 | -33.93790 | 151.26827 | 5210 ft | 206 kts | 85° |
| 2026-05-04 11:33 | -33.93752 | 151.28628 | 5559 ft | 226 kts | 84° |
| 2026-05-04 11:34 | -33.93688 | 151.30623 | 5898 ft | 250 kts | 84° |
| 2026-05-04 11:34 | -33.93612 | 151.32818 | 6264 ft | 274 kts | 85° |
| 2026-05-04 11:34 | -33.93535 | 151.35190 | 6854 ft | 287 kts | 85° |
| 2026-05-04 11:34 | -33.93462 | 151.37622 | 7633 ft | 292 kts | 85° |
| 2026-05-04 11:35 | -33.93413 | 151.40052 | 8430 ft | 297 kts | 89° |
| 2026-05-04 11:35 | -33.93885 | 151.42505 | 9211 ft | 307 kts | 113° |
| 2026-05-04 11:35 | -33.95177 | 151.44583 | 9987 ft | 314 kts | 140° |
| 2026-05-04 11:35 | -33.97102 | 151.45844 | 10626 ft | 321 kts | 165° |
| 2026-05-04 11:36 | -33.99347 | 151.46034 | 10847 ft | 337 kts | 194° |
| 2026-05-04 11:36 | -34.01520 | 151.44909 | 11132 ft | 344 kts | 222° |
| 2026-05-04 11:36 | -34.03276 | 151.42928 | 11693 ft | 347 kts | 229° |
| 2026-05-04 11:36 | -34.04994 | 151.40856 | 12377 ft | 351 kts | 230° |
| 2026-05-04 11:37 | -34.06725 | 151.38761 | 13061 ft | 355 kts | 230° |
| 2026-05-04 11:37 | -34.08479 | 151.36637 | 13736 ft | 358 kts | 230° |
| 2026-05-04 11:37 | -34.10231 | 151.34514 | 14321 ft | 362 kts | 230° |
| 2026-05-04 11:37 | -34.12019 | 151.32349 | 14910 ft | 365 kts | 230° |
| 2026-05-04 11:38 | -34.13824 | 151.30169 | 15516 ft | 367 kts | 230° |
| 2026-05-04 11:38 | -34.15618 | 151.28003 | 16101 ft | 370 kts | 230° |
| 2026-05-04 11:38 | -34.17452 | 151.25792 | 16696 ft | 373 kts | 230° |
| 2026-05-04 11:38 | -34.19299 | 151.23565 | 17294 ft | 376 kts | 230° |
| 2026-05-04 11:39 | -34.21147 | 151.21331 | 17885 ft | 379 kts | 230° |
| 2026-05-04 11:39 | -34.23012 | 151.19069 | 18454 ft | 381 kts | 231° |
| 2026-05-04 11:40 | -34.34321 | 151.04994 | 21552 ft | 393 kts | 236° |
| 2026-05-04 11:41 | -34.36061 | 151.02424 | 22067 ft | 395 kts | 237° |
| 2026-05-04 11:41 | -34.37779 | 150.99817 | 22556 ft | 397 kts | 238° |
| 2026-05-04 11:41 | -34.39477 | 150.97213 | 23033 ft | 399 kts | 238° |
| 2026-05-04 11:41 | -34.41203 | 150.94562 | 23529 ft | 401 kts | 238° |
| 2026-05-04 11:42 | -34.42947 | 150.91892 | 23944 ft | 403 kts | 238° |
| 2026-05-04 11:42 | -34.44701 | 150.89223 | 24360 ft | 405 kts | 238° |
| 2026-05-04 11:42 | -34.46442 | 150.86583 | 24771 ft | 407 kts | 238° |
| 2026-05-04 11:42 | -34.48228 | 150.83884 | 25183 ft | 408 kts | 238° |
| 2026-05-04 11:43 | -34.50005 | 150.81195 | 25594 ft | 410 kts | 238° |
| 2026-05-04 11:43 | -34.51787 | 150.78499 | 26005 ft | 412 kts | 238° |
| 2026-05-04 11:43 | -34.53587 | 150.75764 | 26403 ft | 413 kts | 238° |
| 2026-05-04 11:43 | -34.55385 | 150.73025 | 26801 ft | 415 kts | 238° |
| 2026-05-04 11:44 | -34.57160 | 150.70317 | 27186 ft | 417 kts | 238° |
| 2026-05-04 11:44 | -34.58969 | 150.67559 | 27572 ft | 418 kts | 238° |
| 2026-05-04 11:44 | -34.60789 | 150.64785 | 27962 ft | 420 kts | 238° |
| 2026-05-04 11:44 | -34.62615 | 150.61999 | 28351 ft | 422 kts | 238° |
| 2026-05-04 11:45 | -34.64446 | 150.59200 | 28723 ft | 424 kts | 238° |
| 2026-05-04 11:45 | -34.66286 | 150.56387 | 29071 ft | 426 kts | 238° |
| 2026-05-04 11:45 | -34.68131 | 150.53563 | 29438 ft | 428 kts | 238° |
| 2026-05-04 11:45 | -34.69986 | 150.50714 | 29815 ft | 430 kts | 239° |
| 2026-05-04 11:46 | -34.71846 | 150.47855 | 30148 ft | 433 kts | 239° |
| 2026-05-04 11:46 | -34.73718 | 150.44978 | 30461 ft | 435 kts | 239° |
| 2026-05-04 11:46 | -34.75601 | 150.42095 | 30867 ft | 434 kts | 238° |
| 2026-05-04 11:46 | -34.77483 | 150.39225 | 31378 ft | 431 kts | 239° |
| 2026-05-04 11:47 | -34.79344 | 150.36383 | 31879 ft | 428 kts | 239° |
| 2026-05-04 11:47 | -34.81165 | 150.33591 | 32363 ft | 426 kts | 239° |
| 2026-05-04 11:47 | -34.82999 | 150.30771 | 32867 ft | 423 kts | 239° |
| 2026-05-04 11:47 | -34.84817 | 150.27967 | 33387 ft | 420 kts | 239° |
| 2026-05-04 11:48 | -34.86622 | 150.25181 | 33868 ft | 417 kts | 239° |
| 2026-05-04 11:48 | -34.88417 | 150.22408 | 34272 ft | 415 kts | 240° |
| 2026-05-04 11:48 | -34.90199 | 150.19650 | 34677 ft | 413 kts | 240° |
| 2026-05-04 11:48 | -34.91977 | 150.16891 | 35044 ft | 412 kts | 240° |
| 2026-05-04 11:49 | -34.93746 | 150.14150 | 35386 ft | 411 kts | 240° |
| 2026-05-04 11:49 | -34.95516 | 150.11412 | 35719 ft | 411 kts | 240° |
| 2026-05-04 11:49 | -34.97264 | 150.08707 | 36004 ft | 411 kts | 240° |
| 2026-05-04 11:50 | -35.00809 | 150.03210 | 36106 ft | 413 kts | 240° |
| 2026-05-04 11:50 | -35.04374 | 149.97670 | 36105 ft | 414 kts | 240° |
| 2026-05-04 11:51 | -35.07863 | 149.92079 | 36109 ft | 413 kts | 242° |
| 2026-05-04 11:51 | -35.11171 | 149.86398 | 36106 ft | 412 kts | 243° |
| 2026-05-04 11:52 | -35.14476 | 149.80668 | 36115 ft | 413 kts | 243° |
| 2026-05-04 11:52 | -35.17820 | 149.74940 | 36114 ft | 413 kts | 243° |
| 2026-05-04 11:53 | -35.21158 | 149.69262 | 36123 ft | 414 kts | 243° |
| 2026-05-04 11:53 | -35.24513 | 149.63537 | 36120 ft | 414 kts | 243° |
| 2026-05-04 11:55 | -35.38054 | 149.40316 | 36134 ft | 426 kts | 243° |
| 2026-05-04 11:56 | -35.41494 | 149.34398 | 36138 ft | 426 kts | 243° |
| 2026-05-04 11:56 | -35.44911 | 149.28505 | 36133 ft | 426 kts | 243° |
| 2026-05-04 11:57 | -35.48346 | 149.22574 | 36140 ft | 426 kts | 243° |
| 2026-05-04 11:57 | -35.51776 | 149.16634 | 36144 ft | 426 kts | 243° |
| 2026-05-04 11:58 | -35.55208 | 149.10685 | 36150 ft | 426 kts | 243° |
| 2026-05-04 11:58 | -35.58629 | 149.04734 | 36147 ft | 426 kts | 243° |
| 2026-05-04 11:59 | -35.62036 | 148.98815 | 36150 ft | 427 kts | 243° |
| 2026-05-04 11:59 | -35.65468 | 148.92846 | 36144 ft | 427 kts | 243° |
| 2026-05-04 12:00 | -35.68893 | 148.86869 | 36152 ft | 427 kts | 243° |
| 2026-05-04 12:00 | -35.72296 | 148.80910 | 36152 ft | 427 kts | 243° |
| 2026-05-04 12:01 | -35.75713 | 148.74914 | 36116 ft | 429 kts | 243° |
| 2026-05-04 12:02 | -35.87757 | 148.53723 | 36118 ft | 433 kts | 243° |
| 2026-05-04 12:03 | -35.91211 | 148.47618 | 36120 ft | 433 kts | 243° |
| 2026-05-04 12:03 | -35.94655 | 148.41503 | 36126 ft | 434 kts | 243° |
| 2026-05-04 12:04 | -35.98109 | 148.35366 | 36113 ft | 436 kts | 243° |
| 2026-05-04 12:04 | -36.01550 | 148.29240 | 36108 ft | 438 kts | 243° |
| 2026-05-04 12:05 | -36.05022 | 148.23030 | 36111 ft | 439 kts | 243° |
| 2026-05-04 12:05 | -36.08498 | 148.16797 | 36114 ft | 440 kts | 243° |
| 2026-05-04 12:06 | -36.11973 | 148.10562 | 36120 ft | 441 kts | 243° |
| 2026-05-04 12:06 | -36.15473 | 148.04313 | 36112 ft | 442 kts | 242° |
| 2026-05-04 12:07 | -36.18970 | 147.98062 | 36115 ft | 442 kts | 243° |
| 2026-05-04 12:07 | -36.22468 | 147.91783 | 36128 ft | 442 kts | 243° |
| 2026-05-04 12:08 | -36.25936 | 147.85548 | 36133 ft | 442 kts | 243° |
| 2026-05-04 12:08 | -36.29430 | 147.79267 | 36131 ft | 442 kts | 243° |
| 2026-05-04 12:09 | -36.32919 | 147.72977 | 36131 ft | 442 kts | 243° |
| 2026-05-04 12:09 | -36.36393 | 147.66691 | 36124 ft | 442 kts | 243° |
| 2026-05-04 12:10 | -36.39862 | 147.60387 | 36119 ft | 442 kts | 243° |
| 2026-05-04 12:10 | -36.43308 | 147.54122 | 36114 ft | 442 kts | 243° |
| 2026-05-04 12:11 | -36.46783 | 147.47807 | 36109 ft | 442 kts | 243° |
| 2026-05-04 12:11 | -36.50237 | 147.41494 | 36110 ft | 442 kts | 243° |
| 2026-05-04 12:12 | -36.53695 | 147.35167 | 36108 ft | 442 kts | 243° |
| 2026-05-04 12:12 | -36.57147 | 147.28841 | 36095 ft | 441 kts | 243° |
| 2026-05-04 12:14 | -36.70347 | 147.04559 | 36100 ft | 442 kts | 243° |
| 2026-05-04 12:15 | -36.73783 | 146.98200 | 36101 ft | 442 kts | 243° |
| 2026-05-04 12:15 | -36.77223 | 146.91829 | 36095 ft | 443 kts | 243° |
| 2026-05-04 12:16 | -36.80665 | 146.85450 | 36094 ft | 443 kts | 243° |
| 2026-05-04 12:16 | -36.84107 | 146.79056 | 36098 ft | 444 kts | 243° |
| 2026-05-04 12:17 | -36.87544 | 146.72646 | 36012 ft | 445 kts | 243° |
| 2026-05-04 12:17 | -36.89240 | 146.69480 | 35261 ft | 441 kts | 243° |
| 2026-05-04 12:17 | -36.90946 | 146.66297 | 34425 ft | 436 kts | 244° |
| 2026-05-04 12:18 | -36.92620 | 146.63192 | 33938 ft | 422 kts | 244° |
| 2026-05-04 12:18 | -36.94236 | 146.60200 | 33452 ft | 408 kts | 244° |
| 2026-05-04 12:18 | -36.95789 | 146.57315 | 33005 ft | 393 kts | 245° |
| 2026-05-04 12:18 | -36.97289 | 146.54516 | 32561 ft | 380 kts | 245° |
| 2026-05-04 12:19 | -36.98732 | 146.51806 | 32131 ft | 372 kts | 246° |
| 2026-05-04 12:19 | -37.00159 | 146.49109 | 31704 ft | 370 kts | 246° |
| 2026-05-04 12:19 | -37.01577 | 146.46424 | 31278 ft | 369 kts | 246° |
| 2026-05-04 12:19 | -37.02994 | 146.43744 | 30858 ft | 369 kts | 246° |
| 2026-05-04 12:20 | -37.04390 | 146.41100 | 30443 ft | 368 kts | 246° |
| 2026-05-04 12:20 | -37.05805 | 146.38425 | 29999 ft | 368 kts | 246° |
| 2026-05-04 12:20 | -37.07220 | 146.35754 | 29525 ft | 367 kts | 246° |
| 2026-05-04 12:20 | -37.08630 | 146.33100 | 29080 ft | 365 kts | 245° |
| 2026-05-04 12:21 | -37.10036 | 146.30460 | 28649 ft | 363 kts | 245° |
| 2026-05-04 12:21 | -37.11435 | 146.27826 | 28216 ft | 362 kts | 244° |
| 2026-05-04 12:21 | -37.12822 | 146.25212 | 27797 ft | 360 kts | 244° |
| 2026-05-04 12:21 | -37.14205 | 146.22602 | 27394 ft | 358 kts | 244° |
| 2026-05-04 12:22 | -37.15574 | 146.20014 | 26998 ft | 355 kts | 243° |
| 2026-05-04 12:22 | -37.16933 | 146.17435 | 26600 ft | 353 kts | 243° |
| 2026-05-04 12:22 | -37.18281 | 146.14878 | 26210 ft | 351 kts | 243° |
| 2026-05-04 12:22 | -37.19620 | 146.12332 | 25821 ft | 349 kts | 242° |
| 2026-05-04 12:23 | -37.20955 | 146.09793 | 25413 ft | 347 kts | 242° |
| 2026-05-04 12:23 | -37.22280 | 146.07274 | 25013 ft | 346 kts | 241° |
| 2026-05-04 12:23 | -37.23601 | 146.04763 | 24606 ft | 344 kts | 241° |
| 2026-05-04 12:23 | -37.24918 | 146.02260 | 24185 ft | 343 kts | 241° |
| 2026-05-04 12:24 | -37.26227 | 145.99766 | 23756 ft | 341 kts | 240° |
| 2026-05-04 12:24 | -37.27529 | 145.97278 | 23286 ft | 341 kts | 240° |
| 2026-05-04 12:24 | -37.28814 | 145.94821 | 22852 ft | 338 kts | 240° |
| 2026-05-04 12:24 | -37.30101 | 145.92362 | 22417 ft | 336 kts | 240° |
| 2026-05-04 12:25 | -37.31376 | 145.89928 | 21981 ft | 333 kts | 240° |
| 2026-05-04 12:25 | -37.32650 | 145.87498 | 21539 ft | 332 kts | 240° |
| 2026-05-04 12:25 | -37.33921 | 145.85079 | 21107 ft | 330 kts | 240° |
| 2026-05-04 12:25 | -37.35191 | 145.82668 | 20669 ft | 329 kts | 240° |
| 2026-05-04 12:26 | -37.36454 | 145.80272 | 20237 ft | 327 kts | 240° |
| 2026-05-04 12:26 | -37.37708 | 145.77885 | 19805 ft | 327 kts | 240° |
| 2026-05-04 12:26 | -37.38957 | 145.75497 | 19366 ft | 326 kts | 240° |
| 2026-05-04 12:26 | -37.40184 | 145.73148 | 18936 ft | 325 kts | 240° |
| 2026-05-04 12:27 | -37.41425 | 145.70777 | 18512 ft | 324 kts | 240° |
| 2026-05-04 12:27 | -37.42662 | 145.68410 | 18040 ft | 323 kts | 240° |
| 2026-05-04 12:27 | -37.43893 | 145.66049 | 17592 ft | 321 kts | 240° |
| 2026-05-04 12:27 | -37.45112 | 145.63711 | 17167 ft | 318 kts | 239° |
| 2026-05-04 12:28 | -37.46368 | 145.61429 | 16733 ft | 316 kts | 238° |
| 2026-05-04 12:28 | -37.47667 | 145.59191 | 16307 ft | 316 kts | 237° |
| 2026-05-04 12:28 | -37.48978 | 145.56977 | 15884 ft | 314 kts | 237° |
| 2026-05-04 12:28 | -37.50254 | 145.54832 | 15655 ft | 301 kts | 237° |
| 2026-05-04 12:29 | -37.51485 | 145.52757 | 15203 ft | 292 kts | 237° |
| 2026-05-04 12:29 | -37.52688 | 145.50703 | 14695 ft | 289 kts | 237° |
| 2026-05-04 12:29 | -37.53872 | 145.48663 | 14290 ft | 288 kts | 237° |
| 2026-05-04 12:29 | -37.55051 | 145.46628 | 13891 ft | 286 kts | 238° |
| 2026-05-04 12:30 | -37.56227 | 145.44603 | 13481 ft | 284 kts | 237° |
| 2026-05-04 12:30 | -37.57398 | 145.42584 | 13092 ft | 285 kts | 237° |
| 2026-05-04 12:30 | -37.58569 | 145.40563 | 12705 ft | 283 kts | 237° |
| 2026-05-04 12:30 | -37.59720 | 145.38577 | 12326 ft | 279 kts | 238° |
| 2026-05-04 12:31 | -37.60859 | 145.36606 | 11954 ft | 277 kts | 238° |
| 2026-05-04 12:31 | -37.61975 | 145.34671 | 11583 ft | 275 kts | 238° |
| 2026-05-04 12:31 | -37.63100 | 145.32721 | 11215 ft | 273 kts | 238° |
| 2026-05-04 12:31 | -37.64212 | 145.30792 | 10843 ft | 271 kts | 237° |
| 2026-05-04 12:32 | -37.65322 | 145.28865 | 10474 ft | 272 kts | 238° |
| 2026-05-04 12:32 | -37.67554 | 145.24994 | 9752 ft | 270 kts | 237° |
| 2026-05-04 12:32 | -37.68650 | 145.23098 | 9334 ft | 263 kts | 238° |
| 2026-05-04 12:33 | -37.69712 | 145.21257 | 8972 ft | 255 kts | 238° |
| 2026-05-04 12:33 | -37.70741 | 145.19466 | 8468 ft | 257 kts | 238° |
| 2026-05-04 12:33 | -37.71790 | 145.17634 | 7915 ft | 256 kts | 238° |
| 2026-05-04 12:33 | -37.72835 | 145.15814 | 7388 ft | 255 kts | 237° |
| 2026-05-04 12:34 | -37.73870 | 145.14007 | 7004 ft | 249 kts | 238° |
| 2026-05-04 12:34 | -37.74861 | 145.12285 | 6823 ft | 236 kts | 238° |
| 2026-05-04 12:34 | -37.75809 | 145.10640 | 6639 ft | 228 kts | 238° |
| 2026-05-04 12:34 | -37.76743 | 145.09011 | 6516 ft | 229 kts | 238° |
| 2026-05-04 12:35 | -37.77662 | 145.07402 | 6225 ft | 229 kts | 238° |
| 2026-05-04 12:35 | -37.78587 | 145.05779 | 5786 ft | 227 kts | 238° |
| 2026-05-04 12:35 | -37.79508 | 145.04166 | 5347 ft | 226 kts | 238° |
| 2026-05-04 12:35 | -37.80425 | 145.02563 | 4901 ft | 224 kts | 238° |
| 2026-05-04 12:36 | -37.81435 | 145.01054 | 4433 ft | 228 kts | 222° |
| 2026-05-04 12:36 | -37.82935 | 145.00314 | 3970 ft | 241 kts | 190° |
| 2026-05-04 12:36 | -37.84569 | 145.00709 | 3933 ft | 249 kts | 166° |
| 2026-05-04 12:36 | -37.86184 | 145.01584 | 3924 ft | 255 kts | 162° |
| 2026-05-04 12:37 | -37.87808 | 145.02523 | 3925 ft | 257 kts | 162° |
| 2026-05-04 12:37 | -37.89439 | 145.03472 | 3924 ft | 256 kts | 163° |
| 2026-05-04 12:37 | -37.91116 | 145.03967 | 3919 ft | 239 kts | 191° |
| 2026-05-04 12:37 | -37.92610 | 145.03366 | 3917 ft | 223 kts | 223° |
| 2026-05-04 12:38 | -37.93535 | 145.01898 | 3916 ft | 210 kts | 254° |
| 2026-05-04 12:38 | -37.93725 | 145.00086 | 3921 ft | 209 kts | 270° |
| 2026-05-04 12:38 | -37.93558 | 144.98259 | 3916 ft | 211 kts | 290° |
| 2026-05-04 12:38 | -37.92685 | 144.96737 | 3917 ft | 218 kts | 309° |
| 2026-05-04 12:39 | -37.91577 | 144.95397 | 3696 ft | 220 kts | 311° |
| 2026-05-04 12:39 | -37.90426 | 144.94125 | 3431 ft | 219 kts | 314° |
| 2026-05-04 12:39 | -37.89288 | 144.92940 | 3144 ft | 209 kts | 314° |
| 2026-05-04 12:39 | -37.88181 | 144.91807 | 2860 ft | 198 kts | 314° |
| 2026-05-04 12:40 | -37.87129 | 144.90732 | 2584 ft | 189 kts | 314° |
| 2026-05-04 12:40 | -37.86147 | 144.89724 | 2506 ft | 174 kts | 313° |
| 2026-05-04 12:40 | -37.85240 | 144.88787 | 2509 ft | 167 kts | 313° |
| 2026-05-04 12:40 | -37.84384 | 144.87903 | 2496 ft | 147 kts | 312° |
| 2026-05-04 12:41 | -37.83590 | 144.87156 | 2503 ft | 140 kts | 321° |
| 2026-05-04 12:41 | -37.82663 | 144.86753 | 2498 ft | 142 kts | 338° |
| 2026-05-04 12:41 | -37.81715 | 144.86576 | 2496 ft | 137 kts | 339° |
| 2026-05-04 12:41 | -37.80779 | 144.86398 | 2501 ft | 135 kts | 338° |
| 2026-05-04 12:42 | -37.79847 | 144.86220 | 2502 ft | 135 kts | 338° |
| 2026-05-04 12:42 | -37.78924 | 144.86045 | 2382 ft | 135 kts | 339° |
| 2026-05-04 12:42 | -37.77999 | 144.85871 | 2203 ft | 134 kts | 339° |
| 2026-05-04 12:42 | -37.77075 | 144.85697 | 2021 ft | 134 kts | 340° |
| 2026-05-04 12:43 | -37.76153 | 144.85526 | 1848 ft | 132 kts | 340° |
| 2026-05-04 12:43 | -37.75256 | 144.85358 | 1662 ft | 132 kts | 341° |
| 2026-05-04 12:43 | -37.74343 | 144.85185 | 1484 ft | 132 kts | 342° |
| 2026-05-04 12:43 | -37.73451 | 144.85016 | 1308 ft | 130 kts | 344° |
| 2026-05-04 12:44 | -37.72542 | 144.84844 | 1116 ft | 132 kts | 347° |
| 2026-05-04 12:44 | -37.71640 | 144.84674 | 950 ft | 132 kts | 349° |
| 2026-05-04 12:44 | -37.70723 | 144.84502 | 817 ft | 131 kts | 350° |
| 2026-05-04 12:44 | -37.69796 | 144.84324 | 659 ft | 133 kts | 349° |
| 2026-05-04 12:45 | -37.68885 | 144.84148 | 474 ft | 132 kts | 350° |
| 2026-05-04 12:45 | -37.68004 | 144.83991 | 355 ft | 119 kts | 351° |
| 2026-05-04 12:45 | -37.67340 | 144.83867 | 373 ft | 72 kts | 352° |
| 2026-05-04 12:45 | -37.67007 | 144.83848 | 385 ft | 34 kts | 12° |
| 2026-05-04 12:46 | -37.66833 | 144.83918 | 391 ft | 14 kts | 20° |
| 2026-05-04 12:46 | -37.66828 | 144.83920 | 391 ft | 0 kts | 20° |